createdAt,value
2023-04-12T05:39:35.017Z,13.48
2023-04-12T05:42:05.004Z,17.02
2023-04-12T05:44:34.321Z,18.73
2023-04-12T05:47:07.022Z,18.08
2023-04-12T05:49:36.851Z,19.40
2023-04-12T05:52:13.852Z,14.45
2023-04-12T06:01:10.482Z,16.90
2023-04-12T06:03:44.686Z,15.27
2023-04-12T06:06:37.427Z,15.27
2023-04-12T06:09:29.894Z,17.20
2023-04-12T06:13:10.686Z,14.55
2023-04-12T06:16:14.631Z,14.45
2023-04-12T06:18:44.365Z,13.15
2023-04-12T06:24:37.085Z,12.70
2023-04-12T06:27:05.258Z,17.65
2023-04-12T06:29:38.216Z,15.07
2023-04-12T06:32:15.508Z,15.50
2023-04-12T06:34:48.337Z,13.02
2023-04-12T06:37:23.060Z,11.68
2023-04-12T06:39:51.441Z,13.82
2023-04-12T06:42:22.026Z,18.33
2023-04-12T06:50:20.399Z,19.23
2023-04-12T06:52:52.703Z,18.55
2023-04-12T06:55:20.470Z,12.55
2023-04-12T07:00:26.521Z,12.60
2023-04-12T07:02:55.212Z,15.63
2023-04-12T07:05:23.919Z,16.63
2023-04-12T07:07:53.428Z,12.57
2023-04-12T07:10:22.269Z,17.38
2023-04-12T07:12:52.847Z,13.93
2023-04-12T07:15:20.728Z,12.90
2023-04-12T07:17:50.255Z,12.00
2023-04-12T07:20:22.127Z,12.02
2023-04-12T07:22:53.280Z,14.45
2023-04-12T07:25:34.441Z,12.68
2023-04-12T07:28:11.067Z,13.23
2023-04-12T07:31:16.070Z,13.57
2023-04-12T07:33:44.042Z,12.45
2023-04-12T07:36:47.431Z,13.60
2023-04-12T07:39:16.170Z,13.38
2023-04-12T07:42:00.554Z,12.45
2023-04-12T07:44:31.733Z,14.27
2023-04-12T07:47:03.100Z,11.02
2023-04-12T07:49:35.590Z,12.68
2023-04-12T07:52:03.121Z,13.07
2023-04-12T07:54:32.368Z,12.52
2023-04-12T07:57:06.461Z,12.93
2023-04-12T07:59:35.283Z,16.92
2023-04-12T08:02:04.137Z,17.65
2023-04-12T08:04:34.035Z,9.60
2023-04-12T08:07:04.324Z,13.55
2023-04-12T08:09:44.721Z,16.00
2023-04-12T08:12:14.381Z,10.85
2023-04-12T08:14:42.784Z,18.35
2023-04-12T08:17:10.792Z,18.23
2023-04-12T08:19:39.092Z,15.48
2023-04-12T08:22:07.280Z,18.23
2023-04-12T08:24:36.158Z,11.85
2023-04-12T08:27:06.990Z,11.95
2023-04-12T08:29:39.458Z,10.95
2023-04-12T08:32:11.427Z,12.48
2023-04-12T08:34:39.572Z,11.05
2023-04-12T08:37:46.686Z,8.32
2023-04-12T08:40:15.601Z,12.85
2023-04-12T08:42:44.444Z,9.68
2023-04-12T08:45:12.937Z,9.63
2023-04-12T08:47:43.708Z,8.82
2023-04-12T08:50:31.060Z,10.63
2023-04-12T08:53:00.948Z,14.88
2023-04-12T08:55:31.896Z,7.60
2023-04-12T08:58:02.767Z,12.00
2023-04-12T09:00:31.000Z,10.65
2023-04-12T09:05:49.931Z,9.38
2023-04-12T09:08:24.105Z,10.27
2023-04-12T09:10:56.639Z,10.52
2023-04-12T09:13:40.060Z,9.32
2023-04-12T09:16:12.322Z,8.65
2023-04-12T09:18:51.041Z,6.93
2023-04-12T09:21:19.411Z,8.68
2023-04-12T09:24:17.371Z,10.02
2023-04-12T09:26:46.573Z,13.65
2023-04-12T09:29:27.915Z,11.65
2023-04-12T09:32:08.605Z,9.07
2023-04-12T09:34:36.720Z,11.40
2023-04-12T09:40:24.641Z,7.57
2023-04-12T09:43:05.436Z,8.40
2023-04-12T09:45:35.880Z,7.93
2023-04-12T09:51:09.922Z,12.67
2023-04-12T09:53:42.219Z,9.25
2023-04-12T09:56:11.064Z,9.63
2023-04-12T09:58:41.369Z,9.98
2023-04-12T10:01:53.984Z,9.07
2023-04-12T10:04:22.235Z,9.85
2023-04-12T10:07:05.516Z,9.95
2023-04-12T10:09:37.724Z,10.02
2023-04-12T10:14:43.980Z,9.85
2023-04-12T10:17:11.869Z,10.23
2023-04-12T10:19:41.495Z,10.38
2023-04-12T10:22:47.290Z,13.23
2023-04-12T10:25:26.121Z,10.93
2023-04-12T10:27:55.695Z,12.65
2023-04-12T10:30:34.815Z,13.80
2023-04-12T10:33:07.146Z,11.18
2023-04-12T10:36:09.768Z,15.25
2023-04-12T10:38:48.754Z,10.88
2023-04-12T10:41:21.689Z,12.77
2023-04-12T10:44:12.841Z,13.93
2023-04-12T10:46:43.051Z,12.77
2023-04-12T10:49:15.107Z,18.00
2023-04-12T10:52:03.586Z,11.73
2023-04-12T10:54:40.445Z,12.32
2023-04-12T10:57:08.168Z,14.85
2023-04-12T10:59:58.519Z,16.30
2023-04-12T11:02:26.807Z,14.30
2023-04-12T11:05:10.911Z,12.88
2023-04-12T11:07:46.515Z,14.73
2023-04-12T11:13:16.166Z,14.40
2023-04-12T11:15:51.466Z,13.73
2023-04-12T11:18:19.275Z,13.27
2023-04-12T11:20:58.488Z,16.08
2023-04-12T11:23:28.137Z,15.50
2023-04-12T11:30:03.918Z,12.80
2023-04-12T11:38:57.440Z,20.77
2023-04-12T12:01:53.439Z,14.73
2023-04-12T12:04:24.599Z,14.85
2023-04-12T12:07:14.126Z,14.05
2023-04-12T12:09:49.852Z,13.45
2023-04-12T12:12:21.774Z,10.35
2023-04-12T12:18:03.340Z,13.02
2023-04-12T12:23:51.078Z,9.98
2023-04-12T12:28:27.658Z,8.27
2023-04-12T12:33:42.817Z,11.57
2023-04-12T12:36:35.683Z,10.80
2023-04-12T12:39:27.298Z,11.38
2023-04-12T12:42:24.072Z,12.55
2023-04-12T12:48:39.446Z,7.65
2023-04-12T12:52:25.035Z,7.95
2023-04-12T12:58:08.179Z,5.68
2023-04-12T13:04:27.323Z,7.40
2023-04-12T13:07:03.688Z,6.13
2023-04-12T13:09:42.424Z,11.70
2023-04-12T13:15:23.635Z,10.07
2023-04-12T13:21:02.373Z,10.13
2023-04-12T13:23:41.174Z,8.98
2023-04-12T13:29:43.122Z,8.25
2023-04-12T13:35:43.216Z,11.38
2023-04-12T13:41:04.881Z,15.30
2023-04-12T13:43:32.919Z,15.55
2023-04-12T13:46:01.176Z,14.93
2023-04-12T13:49:14.027Z,16.08
2023-04-12T13:51:44.239Z,11.20
2023-04-12T14:01:10.961Z,10.10
2023-04-12T14:06:47.496Z,9.95
2023-04-12T14:12:59.068Z,8.77
2023-04-12T14:28:39.969Z,8.38
2023-04-12T14:40:44.613Z,10.23
2023-04-12T14:46:41.890Z,9.70
2023-04-12T15:05:20.928Z,9.02
2023-04-12T15:11:17.384Z,8.52
2023-04-12T15:29:44.276Z,11.93
2023-04-12T15:32:34.253Z,9.38
2023-04-12T15:55:22.672Z,9.45
2023-04-12T17:05:52.860Z,13.45
2023-04-12T17:42:56.179Z,15.85
2023-04-12T17:45:46.791Z,29.35
2023-04-12T17:48:19.132Z,26.85
2023-04-12T17:50:48.917Z,31.33
2023-04-12T17:56:08.139Z,33.28
2023-04-12T17:58:48.482Z,34.10
2023-04-12T18:04:31.838Z,26.20
2023-04-12T18:07:00.363Z,23.88
2023-04-12T18:27:45.237Z,11.95
2023-04-12T18:30:23.839Z,19.50
2023-04-12T18:38:51.402Z,20.92
2023-04-12T18:41:17.934Z,22.17
2023-04-12T18:43:45.134Z,39.85
2023-04-12T18:46:16.756Z,72.30
2023-04-12T18:51:13.024Z,125.85
2023-04-12T18:53:39.631Z,194.32
2023-04-12T18:56:12.461Z,160.45
2023-04-12T18:58:54.383Z,151.45
2023-04-12T19:01:22.150Z,113.95
2023-04-12T19:03:49.175Z,113.20
2023-04-12T19:06:15.982Z,129.70
2023-04-12T19:08:43.416Z,144.55
2023-04-12T19:11:10.014Z,103.72
2023-04-12T19:13:37.277Z,90.90
2023-04-12T19:16:07.910Z,109.70
2023-04-12T19:18:34.895Z,102.32
2023-04-12T19:21:02.788Z,59.53
2023-04-12T19:23:29.777Z,71.68
2023-04-12T19:25:58.681Z,54.63
2023-04-12T19:28:26.040Z,30.42
2023-04-12T19:30:53.869Z,24.70
2023-04-12T19:33:20.757Z,38.95
2023-04-12T19:35:47.868Z,30.20
2023-04-12T19:38:15.854Z,37.40
2023-04-12T19:40:43.329Z,42.28
2023-04-12T19:43:10.582Z,43.70
2023-04-12T19:45:38.059Z,40.95
2023-04-12T19:48:04.694Z,45.50
2023-04-12T19:50:31.369Z,47.45
2023-04-12T19:52:57.971Z,42.88
2023-04-12T19:55:25.553Z,38.85
2023-04-12T19:57:52.276Z,32.23
2023-04-12T20:00:23.589Z,37.85
2023-04-12T20:02:51.404Z,43.55
2023-04-12T20:05:19.819Z,48.63
2023-04-12T20:07:46.834Z,62.45
2023-04-12T20:10:15.636Z,58.30
2023-04-12T20:12:42.696Z,67.85
2023-04-12T20:15:11.838Z,79.85
2023-04-12T20:17:41.148Z,82.40
2023-04-12T20:20:11.409Z,75.00
2023-04-12T20:22:39.409Z,68.37
2023-04-12T20:25:06.154Z,60.50
2023-04-12T20:27:33.805Z,57.45
2023-04-12T20:30:00.813Z,53.87
2023-04-12T20:32:27.561Z,48.53
2023-04-12T20:34:55.109Z,54.67
2023-04-12T20:37:21.959Z,48.33
2023-04-12T20:39:48.501Z,49.27
2023-04-12T20:42:16.671Z,61.25
2023-04-12T20:44:43.285Z,43.20
2023-04-12T20:47:13.419Z,49.63
2023-04-12T20:49:39.984Z,49.97
2023-04-12T20:52:06.802Z,50.63
2023-04-12T20:54:34.221Z,51.30
2023-04-12T20:57:00.947Z,68.38
2023-04-12T20:59:30.074Z,72.83
2023-04-12T21:01:58.371Z,66.27
2023-04-12T21:04:27.537Z,55.07
2023-04-12T21:06:57.763Z,68.73
2023-04-12T21:09:24.681Z,78.40
2023-04-12T21:11:52.537Z,79.23
2023-04-12T21:14:19.586Z,78.37
2023-04-12T21:16:48.755Z,75.47
2023-04-12T21:19:16.167Z,72.20
2023-04-12T21:21:42.902Z,77.20
2023-04-12T21:24:09.490Z,66.87
2023-04-12T21:26:36.148Z,65.00
2023-04-12T21:29:02.879Z,49.40
2023-04-12T21:31:29.521Z,47.50
2023-04-12T21:33:59.460Z,56.97
2023-04-12T21:36:29.076Z,44.10
2023-04-12T21:38:56.621Z,44.70
2023-04-12T21:41:24.910Z,44.13
2023-04-12T21:43:52.309Z,45.20
2023-04-12T21:46:19.058Z,42.93
2023-04-12T21:48:46.177Z,40.37
2023-04-12T21:51:12.811Z,36.97
2023-04-12T21:53:39.445Z,43.97
2023-04-12T21:56:06.774Z,51.33
2023-04-12T21:58:33.550Z,43.73
2023-04-12T22:01:00.255Z,58.63
2023-04-12T22:03:27.361Z,50.80
2023-04-12T22:06:04.200Z,48.97
2023-04-12T22:08:33.302Z,63.87
2023-04-12T22:11:00.511Z,69.10
2023-04-12T22:13:27.256Z,70.13
2023-04-12T22:15:53.821Z,52.07
2023-04-12T22:18:20.726Z,70.13
2023-04-12T22:20:51.873Z,62.70
2023-04-12T22:23:19.579Z,68.07
2023-04-12T22:25:46.239Z,59.37
2023-04-12T22:28:12.753Z,64.50
2023-04-12T22:30:39.660Z,76.20
2023-04-12T22:33:06.503Z,65.13
2023-04-12T22:35:35.420Z,73.10
2023-04-12T22:38:02.117Z,73.27
2023-04-12T22:40:28.627Z,130.47
2023-04-12T22:43:01.040Z,97.73
2023-04-12T22:45:28.848Z,114.77
2023-04-12T22:47:55.438Z,71.73
2023-04-12T22:50:22.129Z,71.77
2023-04-12T22:52:50.197Z,61.63
2023-04-12T22:55:18.239Z,62.57
2023-04-12T22:57:45.287Z,76.47
2023-04-12T23:00:16.989Z,68.67
2023-04-12T23:02:44.212Z,58.03
2023-04-12T23:05:12.286Z,75.33
2023-04-12T23:07:38.850Z,98.63
2023-04-12T23:10:06.611Z,78.70
2023-04-12T23:12:33.142Z,94.07
2023-04-12T23:14:59.662Z,75.83
2023-04-12T23:17:26.837Z,89.27
2023-04-12T23:19:53.736Z,52.40
2023-04-12T23:22:55.849Z,206.87
2023-04-12T23:25:25.505Z,105.17
2023-04-12T23:27:52.421Z,190.23
2023-04-12T23:30:19.037Z,68.50
2023-04-12T23:32:46.220Z,191.47
2023-04-12T23:35:14.568Z,135.93
2023-04-12T23:37:41.798Z,66.40
2023-04-12T23:40:14.338Z,118.13
2023-04-12T23:42:42.077Z,83.23
2023-04-12T23:45:09.360Z,45.73
2023-04-12T23:47:35.884Z,41.70
2023-04-12T23:50:03.171Z,91.67
2023-04-12T23:52:29.830Z,61.00
2023-04-12T23:54:59.318Z,259.53
2023-04-12T23:57:25.916Z,151.60
2023-04-12T23:59:52.449Z,49.13
